createdAt,value
2022-10-12T00:02:11.274Z,12.23
2022-10-12T00:04:38.103Z,13.40
2022-10-12T00:07:04.907Z,13.23
2022-10-12T00:09:31.778Z,11.07
2022-10-12T00:12:01.213Z,9.30
2022-10-12T00:14:27.950Z,9.97
2022-10-12T00:16:56.002Z,13.37
2022-10-12T00:19:22.718Z,13.97
2022-10-12T00:21:49.618Z,10.57
2022-10-12T00:24:16.360Z,13.10
2022-10-12T00:26:43.109Z,12.60
2022-10-12T00:29:10.159Z,10.03
2022-10-12T00:31:36.869Z,16.93
2022-10-12T00:34:04.284Z,8.30
2022-10-12T00:36:36.506Z,9.83
2022-10-12T00:39:06.414Z,11.83
2022-10-12T00:41:36.807Z,12.43
2022-10-12T00:44:03.794Z,8.80
2022-10-12T00:46:36.413Z,11.47
2022-10-12T00:49:35.665Z,12.90
2022-10-12T00:52:08.606Z,15.00
2022-10-12T00:54:41.193Z,10.43
2022-10-12T00:57:10.232Z,8.97
2022-10-12T00:59:43.310Z,9.47
2022-10-12T01:02:10.608Z,8.23
2022-10-12T01:04:38.991Z,14.07
2022-10-12T01:07:05.825Z,9.67
2022-10-12T01:09:33.284Z,12.43
2022-10-12T01:12:00.579Z,8.67
2022-10-12T01:14:27.416Z,11.40
2022-10-12T01:17:00.876Z,10.50
2022-10-12T01:19:40.005Z,11.60
2022-10-12T01:22:14.361Z,12.50
2022-10-12T01:24:49.284Z,10.97
2022-10-12T01:27:37.046Z,14.53
2022-10-12T01:30:16.879Z,11.00
2022-10-12T01:33:04.897Z,11.07
2022-10-12T01:35:40.620Z,13.13
2022-10-12T01:38:35.072Z,14.13
2022-10-12T01:41:14.188Z,15.20
2022-10-12T01:43:44.455Z,12.63
2022-10-12T01:46:17.141Z,17.63
2022-10-12T01:48:46.647Z,10.83
2022-10-12T01:51:19.083Z,13.33
2022-10-12T01:53:58.514Z,12.53
2022-10-12T01:56:36.156Z,14.63
2022-10-12T01:59:54.289Z,12.47
2022-10-12T02:02:35.661Z,12.27
2022-10-12T02:05:16.811Z,12.47
2022-10-12T02:07:55.582Z,13.60
2022-10-12T02:10:52.068Z,14.60
2022-10-12T02:13:22.444Z,12.57
2022-10-12T02:15:49.467Z,11.73
2022-10-12T02:18:19.394Z,12.90
2022-10-12T02:20:52.773Z,10.70
2022-10-12T02:23:23.894Z,14.83
2022-10-12T02:25:56.145Z,11.47
2022-10-12T02:28:26.373Z,12.83
2022-10-12T02:31:16.199Z,10.80
2022-10-12T02:34:15.600Z,12.50
2022-10-12T02:36:53.994Z,13.50
2022-10-12T02:39:28.398Z,13.00
2022-10-12T02:41:59.776Z,13.73
2022-10-12T02:44:31.728Z,12.33
2022-10-12T02:47:00.866Z,13.17
2022-10-12T02:49:30.840Z,11.33
2022-10-12T02:51:58.022Z,16.27
2022-10-12T02:54:28.019Z,9.03
2022-10-12T02:56:54.788Z,8.63
2022-10-12T02:59:21.622Z,14.77
2022-10-12T03:01:48.516Z,10.50
2022-10-12T03:04:18.560Z,13.90
2022-10-12T03:06:48.865Z,15.57
2022-10-12T03:09:15.756Z,12.87
2022-10-12T03:11:48.360Z,16.40
2022-10-12T03:14:16.971Z,8.87
2022-10-12T03:16:48.109Z,10.60
2022-10-12T03:19:17.729Z,12.93
2022-10-12T03:21:44.563Z,12.93
2022-10-12T03:24:12.505Z,12.37
2022-10-12T03:26:39.922Z,10.73
2022-10-12T03:29:06.635Z,10.13
2022-10-12T03:31:36.063Z,9.83
2022-10-12T03:34:03.253Z,14.83
2022-10-12T03:36:30.836Z,10.30
2022-10-12T03:38:57.661Z,17.10
2022-10-12T03:41:24.464Z,10.37
2022-10-12T03:43:51.248Z,10.90
2022-10-12T03:46:18.195Z,11.07
2022-10-12T03:48:46.001Z,11.73
2022-10-12T03:51:15.518Z,13.70
2022-10-12T03:53:45.538Z,11.93
2022-10-12T03:56:12.936Z,11.17
2022-10-12T03:58:39.789Z,11.73
2022-10-12T04:01:06.471Z,13.73
2022-10-12T04:03:35.559Z,10.80
2022-10-12T04:06:09.758Z,12.10
2022-10-12T04:08:36.439Z,11.50
2022-10-12T04:11:03.269Z,9.50
2022-10-12T04:13:32.839Z,12.13
2022-10-12T04:16:09.646Z,13.13
2022-10-12T04:18:36.790Z,11.57
2022-10-12T04:21:08.815Z,10.20
2022-10-12T04:23:35.518Z,9.43
2022-10-12T04:26:02.325Z,12.53
2022-10-12T04:28:29.298Z,8.83
2022-10-12T04:30:55.971Z,11.63
2022-10-12T04:33:22.778Z,13.57
2022-10-12T04:35:49.648Z,9.70
2022-10-12T04:38:16.684Z,13.33
2022-10-12T04:40:48.021Z,9.17
2022-10-12T04:43:18.073Z,12.97
2022-10-12T04:45:44.803Z,16.23
2022-10-12T04:48:11.523Z,11.77
2022-10-12T04:50:38.204Z,10.70
2022-10-12T04:53:04.969Z,11.57
2022-10-12T04:55:32.317Z,8.87
2022-10-12T04:58:00.842Z,13.37
2022-10-12T05:00:27.619Z,9.80
2022-10-12T05:02:54.405Z,11.80
2022-10-12T05:05:21.146Z,13.77
2022-10-12T05:07:47.835Z,11.47
2022-10-12T05:10:14.621Z,10.80
2022-10-12T05:12:42.644Z,13.60
2022-10-12T05:15:10.376Z,15.90
2022-10-12T05:17:37.437Z,11.67
2022-10-12T05:20:04.848Z,11.50
2022-10-12T05:22:31.986Z,9.43
2022-10-12T05:24:58.851Z,15.13
2022-10-12T05:27:25.670Z,10.30
2022-10-12T05:29:52.423Z,9.03
2022-10-12T05:32:19.368Z,12.97
2022-10-12T05:34:46.213Z,10.83
2022-10-12T05:37:12.987Z,11.50
2022-10-12T05:39:39.901Z,11.67
2022-10-12T05:42:08.899Z,14.10
2022-10-12T05:44:35.615Z,11.33
2022-10-12T05:47:02.773Z,11.07
2022-10-12T05:49:30.826Z,8.20
2022-10-12T05:51:57.521Z,11.87
2022-10-12T05:54:24.284Z,12.57
2022-10-12T05:56:51.086Z,11.23
2022-10-12T05:59:17.803Z,14.57
2022-10-12T06:01:44.622Z,13.27
2022-10-12T06:04:13.001Z,12.10
2022-10-12T06:06:39.849Z,15.07
2022-10-12T06:09:06.564Z,10.23
2022-10-12T06:11:36.606Z,14.37
2022-10-12T06:14:04.075Z,11.40
2022-10-12T06:16:31.052Z,10.97
2022-10-12T06:18:57.887Z,11.80
2022-10-12T06:21:39.996Z,14.43
2022-10-12T06:24:06.938Z,17.93
2022-10-12T06:26:33.795Z,13.13
2022-10-12T06:29:00.950Z,14.73
2022-10-12T06:31:29.034Z,12.83
2022-10-12T06:33:55.885Z,14.93
2022-10-12T06:36:25.626Z,13.03
2022-10-12T06:38:52.495Z,15.20
2022-10-12T06:41:19.231Z,13.70
2022-10-12T06:43:46.142Z,13.53
2022-10-12T06:46:17.126Z,14.07
2022-10-12T06:48:43.801Z,14.43
2022-10-12T06:51:13.304Z,14.57
2022-10-12T06:53:40.508Z,14.43
2022-10-12T06:56:08.854Z,12.63
2022-10-12T06:58:35.788Z,14.87
2022-10-12T07:01:12.634Z,14.23
2022-10-12T07:03:39.520Z,17.80
2022-10-12T07:06:11.683Z,16.33
2022-10-12T07:08:39.391Z,16.17
2022-10-12T07:11:08.180Z,16.47
2022-10-12T07:13:35.303Z,15.77
2022-10-12T07:16:07.425Z,18.00
2022-10-12T07:18:34.883Z,18.83
2022-10-12T07:21:04.811Z,20.70
2022-10-12T07:23:33.118Z,15.73
2022-10-12T07:26:03.020Z,15.57
2022-10-12T07:28:30.077Z,15.07
2022-10-12T07:31:04.853Z,13.63
2022-10-12T07:33:34.119Z,16.00
2022-10-12T07:36:21.987Z,19.97
2022-10-12T07:38:49.543Z,17.63
2022-10-12T07:41:17.318Z,18.47
2022-10-12T07:43:46.265Z,19.03
2022-10-12T07:46:13.265Z,19.07
2022-10-12T07:48:47.470Z,21.53
2022-10-12T07:51:16.777Z,16.77
2022-10-12T07:53:46.837Z,24.27
2022-10-12T07:56:17.017Z,21.03
2022-10-12T07:59:04.265Z,21.57
2022-10-12T08:01:31.967Z,19.00
2022-10-12T08:04:01.653Z,19.37
2022-10-12T08:06:31.423Z,18.10
2022-10-12T08:09:00.065Z,18.73
2022-10-12T08:11:27.048Z,21.07
2022-10-12T08:13:53.820Z,23.73
2022-10-12T08:16:21.847Z,21.30
2022-10-12T08:18:51.876Z,25.73
2022-10-12T08:21:19.588Z,19.73
2022-10-12T08:23:46.774Z,21.77
2022-10-12T08:26:18.525Z,20.77
2022-10-12T08:28:45.562Z,26.30
2022-10-12T08:31:15.271Z,26.17
2022-10-12T08:33:44.169Z,18.90
2022-10-12T08:36:14.784Z,22.17
2022-10-12T08:38:43.635Z,17.50
2022-10-12T08:41:31.896Z,20.50
2022-10-12T08:44:27.394Z,13.47
2022-10-12T08:47:12.676Z,24.23
2022-10-12T08:49:40.874Z,19.67
2022-10-12T08:52:22.682Z,24.63
2022-10-12T08:54:49.572Z,17.00
2022-10-12T08:57:18.658Z,22.87
2022-10-12T08:59:46.572Z,20.03
2022-10-12T09:02:44.290Z,16.83
2022-10-12T09:05:34.032Z,16.37
2022-10-12T09:08:11.743Z,19.67
2022-10-12T09:10:44.848Z,21.70
2022-10-12T09:13:40.935Z,16.07
2022-10-12T09:16:29.503Z,17.27
2022-10-12T09:19:01.474Z,15.07
2022-10-12T09:21:31.411Z,15.60
2022-10-12T09:24:01.617Z,18.23
2022-10-12T09:26:39.999Z,17.77
2022-10-12T09:29:27.650Z,16.33
2022-10-12T09:32:13.194Z,14.17
2022-10-12T09:34:40.412Z,15.57
2022-10-12T09:37:11.480Z,18.83
2022-10-12T09:39:46.736Z,17.93
2022-10-12T09:42:15.945Z,17.87
2022-10-12T09:44:48.017Z,18.50
2022-10-12T09:47:29.513Z,13.97
2022-10-12T09:49:58.771Z,19.97
2022-10-12T09:52:30.446Z,19.03
2022-10-12T09:55:19.611Z,14.53
2022-10-12T09:57:55.373Z,23.57
2022-10-12T10:00:27.661Z,20.07
2022-10-12T10:02:55.926Z,20.77
2022-10-12T10:05:29.127Z,20.37
2022-10-12T10:08:14.280Z,20.07
2022-10-12T10:10:57.796Z,21.37
2022-10-12T10:13:30.590Z,21.53
2022-10-12T10:16:09.221Z,19.30
2022-10-12T10:18:45.020Z,19.60
2022-10-12T10:21:37.913Z,21.57
2022-10-12T10:24:26.531Z,22.27
2022-10-12T10:26:58.115Z,21.47
2022-10-12T10:29:42.143Z,32.47
2022-10-12T10:32:31.545Z,19.87
2022-10-12T10:35:13.719Z,21.97
2022-10-12T10:37:55.731Z,26.60
2022-10-12T10:40:33.051Z,24.50
2022-10-12T10:43:04.946Z,24.87
2022-10-12T10:46:00.851Z,21.60
2022-10-12T10:48:51.100Z,27.60
2022-10-12T10:51:17.881Z,21.90
2022-10-12T10:53:48.005Z,22.83
2022-10-12T10:56:29.055Z,24.53
2022-10-12T10:58:58.169Z,25.37
2022-10-12T11:01:34.782Z,28.37
2022-10-12T11:04:27.589Z,25.77
2022-10-12T11:06:59.652Z,17.83
2022-10-12T11:09:38.903Z,23.07
2022-10-12T11:12:14.703Z,22.03
2022-10-12T11:14:50.859Z,20.27
2022-10-12T11:17:27.570Z,19.30
2022-10-12T11:20:33.383Z,19.67
2022-10-12T11:23:37.238Z,20.73
2022-10-12T11:26:14.952Z,18.97
2022-10-12T11:28:42.773Z,20.60
2022-10-12T11:31:24.560Z,25.93
2022-10-12T11:33:54.667Z,20.83
2022-10-12T11:36:24.486Z,18.20
2022-10-12T11:39:07.322Z,16.73
2022-10-12T11:41:45.005Z,17.57
2022-10-12T11:44:40.928Z,18.97
2022-10-12T11:47:21.178Z,20.33
2022-10-12T11:50:07.059Z,19.90
2022-10-12T11:52:40.389Z,19.57
2022-10-12T11:55:34.918Z,20.37
2022-10-12T11:58:24.426Z,19.60
2022-10-12T12:01:29.732Z,17.83
2022-10-12T12:04:40.423Z,17.20
2022-10-12T12:07:43.496Z,15.27
2022-10-12T12:10:31.012Z,15.87
2022-10-12T12:13:20.891Z,13.10
2022-10-12T12:15:47.571Z,16.20
2022-10-12T12:18:20.472Z,13.80
2022-10-12T12:20:47.830Z,15.87
2022-10-12T12:23:23.933Z,17.07
2022-10-12T12:26:28.866Z,17.77
2022-10-12T12:29:19.425Z,18.10
2022-10-12T12:31:59.284Z,15.80
2022-10-12T12:34:29.329Z,13.30
2022-10-12T12:36:58.514Z,12.83
2022-10-12T12:39:32.691Z,14.97
2022-10-12T12:42:04.870Z,15.10
2022-10-12T12:44:37.509Z,19.23
2022-10-12T12:47:26.132Z,11.03
2022-10-12T12:49:57.793Z,10.17
2022-10-12T12:52:24.922Z,14.60
2022-10-12T12:54:54.570Z,13.17
2022-10-12T12:57:49.010Z,10.87
2022-10-12T13:00:25.126Z,13.23
2022-10-12T13:03:13.180Z,14.50
2022-10-12T13:06:00.116Z,10.63
2022-10-12T13:08:46.273Z,9.43
2022-10-12T13:11:38.308Z,9.93
2022-10-12T13:14:20.434Z,11.57
2022-10-12T13:19:56.292Z,12.07
2022-10-12T13:22:35.145Z,11.47
2022-10-12T13:25:05.664Z,8.67
2022-10-12T13:27:50.370Z,9.80
2022-10-12T13:30:29.234Z,12.87
2022-10-12T13:33:09.696Z,7.67
2022-10-12T13:36:02.545Z,14.83
2022-10-12T13:38:30.410Z,9.10
2022-10-12T13:41:08.422Z,11.77
2022-10-12T13:43:45.691Z,6.60
2022-10-12T13:46:16.224Z,11.23
2022-10-12T13:48:59.656Z,8.93
2022-10-12T13:51:33.350Z,6.07
2022-10-12T13:54:18.259Z,8.20
2022-10-12T13:56:46.947Z,9.83
2022-10-12T13:59:23.035Z,9.20
2022-10-12T14:02:00.857Z,9.03
2022-10-12T14:04:32.910Z,8.67
2022-10-12T14:07:04.082Z,6.90
2022-10-12T14:09:41.559Z,7.83
2022-10-12T14:12:12.971Z,9.23
2022-10-12T14:14:42.910Z,9.90
2022-10-12T14:17:18.499Z,7.03
2022-10-12T14:19:46.645Z,9.33
2022-10-12T14:22:29.678Z,4.43
2022-10-12T14:25:15.840Z,8.63
2022-10-12T14:27:42.813Z,7.80
2022-10-12T14:30:22.495Z,9.47
2022-10-12T14:32:54.051Z,8.77
2022-10-12T14:35:29.198Z,7.80
2022-10-12T14:37:56.794Z,5.17
2022-10-12T14:40:44.957Z,12.77
2022-10-12T14:43:14.582Z,9.10
2022-10-12T14:45:41.544Z,14.20
2022-10-12T14:48:22.855Z,8.77
2022-10-12T14:50:50.121Z,8.50
2022-10-12T14:53:17.113Z,9.07
2022-10-12T14:55:44.151Z,7.37
2022-10-12T14:58:15.238Z,11.10
2022-10-12T15:00:42.722Z,11.07
2022-10-12T15:03:09.706Z,8.23
2022-10-12T15:05:36.523Z,8.80
2022-10-12T15:08:09.165Z,6.43
2022-10-12T15:10:38.010Z,10.00
2022-10-12T15:13:04.958Z,10.67
2022-10-12T15:15:40.757Z,10.10
2022-10-12T15:18:09.691Z,8.70
2022-10-12T15:20:37.432Z,9.90
2022-10-12T15:23:04.859Z,12.93
2022-10-12T15:25:53.514Z,9.13
2022-10-12T15:28:21.589Z,9.07
2022-10-12T15:31:15.420Z,11.97
2022-10-12T15:33:35.835Z,14.23
2022-10-12T15:36:02.826Z,6.57
2022-10-12T15:38:30.072Z,9.97
2022-10-12T15:43:41.923Z,10.93
2022-10-12T15:46:11.853Z,8.03
2022-10-12T15:48:40.226Z,12.67
2022-10-12T15:51:20.687Z,9.00
2022-10-12T15:53:47.359Z,7.57
2022-10-12T15:56:15.527Z,7.20
2022-10-12T15:58:42.605Z,6.67
2022-10-12T16:01:14.088Z,7.93
2022-10-12T16:03:41.543Z,6.67
2022-10-12T16:06:08.834Z,10.93
2022-10-12T16:08:36.049Z,6.73
2022-10-12T16:11:04.380Z,11.37
2022-10-12T16:13:31.261Z,8.73
2022-10-12T16:15:58.097Z,7.63
2022-10-12T16:18:24.929Z,9.13
2022-10-12T16:20:53.961Z,7.40
2022-10-12T16:23:33.703Z,6.43
2022-10-12T16:26:03.914Z,10.83
2022-10-12T16:28:30.757Z,7.83
2022-10-12T16:30:57.653Z,11.70
2022-10-12T16:33:25.534Z,9.30
2022-10-12T16:35:52.480Z,6.80
2022-10-12T16:38:20.336Z,10.30
2022-10-12T16:40:49.100Z,11.20
2022-10-12T16:43:15.857Z,9.93
2022-10-12T16:45:42.829Z,13.40
2022-10-12T16:48:09.695Z,8.90
2022-10-12T16:50:40.529Z,11.50
2022-10-12T16:53:07.863Z,10.47
2022-10-12T16:55:37.804Z,13.37
2022-10-12T16:58:04.595Z,9.47
2022-10-12T17:00:34.254Z,8.37
2022-10-12T17:03:01.243Z,9.53
2022-10-12T17:05:28.123Z,11.50
2022-10-12T17:07:54.855Z,9.40
2022-10-12T17:10:21.764Z,9.47
2022-10-12T17:12:48.496Z,13.57
2022-10-12T17:15:15.363Z,9.83
2022-10-12T17:17:42.299Z,11.57
2022-10-12T17:20:09.629Z,11.17
2022-10-12T17:22:36.496Z,13.07
2022-10-12T17:25:03.556Z,10.50
2022-10-12T17:27:32.440Z,10.47
2022-10-12T17:29:59.685Z,13.40
2022-10-12T17:32:26.900Z,9.60
2022-10-12T17:34:53.711Z,13.23
2022-10-12T17:37:22.057Z,13.77
2022-10-12T17:39:50.343Z,18.90
2022-10-12T17:42:17.986Z,12.47
2022-10-12T17:44:45.056Z,13.30
2022-10-12T17:47:11.938Z,13.97
2022-10-12T17:49:38.707Z,15.30
2022-10-12T17:52:05.680Z,10.70
2022-10-12T17:54:32.990Z,13.17
2022-10-12T17:56:59.755Z,14.43
2022-10-12T17:59:26.747Z,9.77
2022-10-12T18:01:54.055Z,12.30
2022-10-12T18:04:21.123Z,12.00
2022-10-12T18:06:48.075Z,13.40
2022-10-12T18:09:15.154Z,15.23
2022-10-12T18:11:41.949Z,15.13
2022-10-12T18:14:09.697Z,20.87
2022-10-12T18:16:46.307Z,15.13
2022-10-12T18:19:13.503Z,17.53
2022-10-12T18:21:40.581Z,18.83
2022-10-12T18:24:17.072Z,16.70
2022-10-12T18:26:46.537Z,14.23
2022-10-12T18:29:13.294Z,19.87
2022-10-12T18:31:43.123Z,16.53
2022-10-12T18:34:09.965Z,17.13
2022-10-12T18:36:36.768Z,15.37
2022-10-12T18:39:07.091Z,17.23
2022-10-12T18:41:34.162Z,14.07
2022-10-12T18:44:02.603Z,16.60
2022-10-12T18:46:31.913Z,17.30
2022-10-12T18:48:59.159Z,16.03
2022-10-12T18:51:31.318Z,19.43
2022-10-12T18:54:01.261Z,17.67
2022-10-12T18:56:29.235Z,19.07
2022-10-12T18:58:57.661Z,21.07
2022-10-12T19:01:26.102Z,18.33
2022-10-12T19:03:55.707Z,15.53
2022-10-12T19:06:26.922Z,16.83
2022-10-12T19:08:56.069Z,16.67
2022-10-12T19:11:24.336Z,17.10
2022-10-12T19:13:57.586Z,14.73
2022-10-12T19:16:24.604Z,15.80
2022-10-12T19:18:59.625Z,20.20
2022-10-12T19:21:27.318Z,15.33
2022-10-12T19:23:56.533Z,17.10
2022-10-12T19:26:28.927Z,17.63
2022-10-12T19:28:56.769Z,14.37
2022-10-12T19:31:27.051Z,15.20
2022-10-12T19:33:59.223Z,14.33
2022-10-12T19:36:26.788Z,17.77
2022-10-12T19:38:57.904Z,19.40
2022-10-12T19:41:28.699Z,15.50
2022-10-12T19:43:56.526Z,20.10
2022-10-12T19:46:23.693Z,16.83
2022-10-12T19:48:52.502Z,18.93
2022-10-12T19:51:21.374Z,15.63
2022-10-12T19:53:51.354Z,17.07
2022-10-12T19:56:20.920Z,16.90
2022-10-12T19:58:49.209Z,17.43
2022-10-12T20:01:27.092Z,17.73
2022-10-12T20:03:54.284Z,17.47
2022-10-12T20:06:23.726Z,16.33
2022-10-12T20:08:52.001Z,20.17
2022-10-12T20:11:24.693Z,17.17
2022-10-12T20:13:52.489Z,18.57
2022-10-12T20:16:20.627Z,18.37
2022-10-12T20:18:47.793Z,20.47
2022-10-12T20:21:18.905Z,15.07
2022-10-12T20:23:45.995Z,18.43
2022-10-12T20:26:16.095Z,17.67
2022-10-12T20:28:43.247Z,18.33
2022-10-12T20:31:10.442Z,16.40
2022-10-12T20:33:39.109Z,19.83
2022-10-12T20:36:18.493Z,18.97
2022-10-12T20:38:45.221Z,23.27
2022-10-12T20:41:14.143Z,29.10
2022-10-12T20:43:40.859Z,19.43
2022-10-12T20:46:11.837Z,20.73
2022-10-12T20:48:40.065Z,18.47
2022-10-12T20:51:08.772Z,17.37
2022-10-12T20:53:35.910Z,21.30
2022-10-12T20:56:05.760Z,17.67
2022-10-12T20:58:32.794Z,19.13
2022-10-12T21:01:08.294Z,19.07
2022-10-12T21:03:38.202Z,20.37
2022-10-12T21:06:10.789Z,18.83
2022-10-12T21:08:38.190Z,17.60
2022-10-12T21:11:05.789Z,18.53
2022-10-12T21:13:34.782Z,17.00
2022-10-12T21:16:01.635Z,17.83
2022-10-12T21:18:32.770Z,18.70
2022-10-12T21:21:05.401Z,17.53
2022-10-12T21:23:32.250Z,16.17
2022-10-12T21:25:59.078Z,17.87
2022-10-12T21:28:26.034Z,18.63
2022-10-12T21:30:52.883Z,19.67
2022-10-12T21:33:19.762Z,17.70
2022-10-12T21:35:46.655Z,17.57
2022-10-12T21:38:13.367Z,18.43
2022-10-12T21:40:40.257Z,16.43
2022-10-12T21:43:07.055Z,19.13
2022-10-12T21:45:33.877Z,17.87
2022-10-12T21:48:00.784Z,25.43
2022-10-12T21:50:27.995Z,20.33
2022-10-12T21:52:59.412Z,18.07
2022-10-12T21:55:27.330Z,16.03
2022-10-12T21:57:54.108Z,16.87
2022-10-12T22:00:21.025Z,18.60
2022-10-12T22:02:47.933Z,19.37
2022-10-12T22:05:14.799Z,15.97
2022-10-12T22:07:42.944Z,14.47
2022-10-12T22:10:12.789Z,22.20
2022-10-12T22:12:40.232Z,15.03
2022-10-12T22:15:10.469Z,18.03
2022-10-12T22:17:37.889Z,17.57
2022-10-12T22:20:05.225Z,16.87
2022-10-12T22:22:31.915Z,20.60
2022-10-12T22:24:58.625Z,17.53
2022-10-12T22:27:25.336Z,17.37
2022-10-12T22:29:55.070Z,17.33
2022-10-12T22:32:21.972Z,20.87
2022-10-12T22:34:48.767Z,18.67
2022-10-12T22:37:15.466Z,16.70
2022-10-12T22:39:42.184Z,17.00
2022-10-12T22:42:09.146Z,15.00
2022-10-12T22:44:35.884Z,15.87
2022-10-12T22:47:05.549Z,17.40
2022-10-12T22:49:32.309Z,19.10
2022-10-12T22:51:59.004Z,15.53
2022-10-12T22:54:25.711Z,17.07
2022-10-12T22:56:52.423Z,22.70
2022-10-12T22:59:21.449Z,16.23
2022-10-12T23:01:48.416Z,19.27
2022-10-12T23:04:15.203Z,16.77
2022-10-12T23:06:42.088Z,19.63
2022-10-12T23:09:11.842Z,19.27
2022-10-12T23:11:38.552Z,18.70
2022-10-12T23:14:07.998Z,16.13
2022-10-12T23:16:34.759Z,13.10
2022-10-12T23:19:04.105Z,26.77
2022-10-12T23:21:32.319Z,15.63
2022-10-12T23:24:00.421Z,18.87
2022-10-12T23:26:29.249Z,15.30
2022-10-12T23:28:56.280Z,15.90
2022-10-12T23:31:25.690Z,17.07
2022-10-12T23:34:01.233Z,22.53
2022-10-12T23:36:28.304Z,19.40
2022-10-12T23:38:55.223Z,15.80
2022-10-12T23:41:22.109Z,14.83
2022-10-12T23:43:51.893Z,17.87
2022-10-12T23:46:21.895Z,20.67
2022-10-12T23:48:51.885Z,17.00
2022-10-12T23:51:19.628Z,19.67
2022-10-12T23:53:49.566Z,16.87
2022-10-12T23:56:19.397Z,17.27
2022-10-12T23:58:46.160Z,15.67
